Rhodanus — PGBC — position and weather

sailwx.info

Track history (hours):
 
Tides and Currents Weather Stations Pressure Air Temp Water Temp Dewpoint Dewpoint Depression Visibility Wind Speed Wind Dir Waves Ship Positions

Rhodanus

Last reported at 2014-Nov-24 11:25 UTC. Time now 2014-Nov-26 00:27 UTC.
Position N 39°16' E 003°38'.

Length 89 m; draft 4.2 m.

Type: Cargo ship. MMSI: 245848000.

Date/timePositionNaut miles runAvg speedWind from/ knotsBaromVisibWave heightAir tempDewpointWater temp
2014-Nov-24 11:25N 39°16' E 003°38'8 9.4
2014-Nov-24 10:33N 39°11' E 003°29'10 9.6
2014-Nov-24 09:33N 39°06' E 003°19'10 9.6
2014-Nov-24 08:33N 39°00' E 003°09'9 9.4
2014-Nov-24 07:33N 38°55' E 002°59'9 9.1
2014-Nov-24 06:33N 38°50' E 002°49'9 9.3
2014-Nov-24 05:33N 38°45' E 002°39'411 8.8
2014-Nov-22 07:04N 36°01' W 005°14'4 8.9
2014-Nov-22 06:33N 35°60' W 005°20'1010.2
2014-Nov-22 05:33N 35°57' W 005°32'  
2014-Nov-19 20:27N 35°58' W 005°34'  
Track history (hours):
 
Tides and Currents Weather Stations Pressure Air Temp Water Temp Dewpoint Dewpoint Depression Visibility Wind Speed Wind Dir Waves Ship Positions

Rhodanus

Last reported at 2014-Nov-24 11:25 UTC. Time now 2014-Nov-26 00:27 UTC.
Position N 39°16' E 003°38'.

Length 89 m; draft 4.2 m.

Type: Cargo ship. MMSI: 245848000.

Date/timePositionNaut miles runAvg speedWind from/ knotsBaromVisibWave heightAir tempDewpointWater temp
2014-Nov-24 11:25N 39°16' E 003°38'8 9.4
2014-Nov-24 10:33N 39°11' E 003°29'10 9.6
2014-Nov-24 09:33N 39°06' E 003°19'10 9.6
2014-Nov-24 08:33N 39°00' E 003°09'9 9.4
2014-Nov-24 07:33N 38°55' E 002°59'9 9.1
2014-Nov-24 06:33N 38°50' E 002°49'9 9.3
2014-Nov-24 05:33N 38°45' E 002°39'411 8.8
2014-Nov-22 07:04N 36°01' W 005°14'4 8.9
2014-Nov-22 06:33N 35°60' W 005°20'1010.2
2014-Nov-22 05:33N 35°57' W 005°32'  
2014-Nov-19 20:27N 35°58' W 005°34'  

Dump ship's entire track history